sensor_id;sensor_type;location;lat;lon;timestamp;P1;durP1;ratioP1;P2;durP2;ratioP2
79076;SDS011;68477;42.698;23.342;2023-06-22T00:01:17;11.98;;;8.27;;
79076;SDS011;68477;42.698;23.342;2023-06-22T00:03:43;11.88;;;8.70;;
79076;SDS011;68477;42.698;23.342;2023-06-22T00:06:09;11.65;;;8.30;;
79076;SDS011;68477;42.698;23.342;2023-06-22T00:08:34;11.80;;;8.13;;
79076;SDS011;68477;42.698;23.342;2023-06-22T00:11:00;13.70;;;7.97;;
79076;SDS011;68477;42.698;23.342;2023-06-22T00:13:25;13.20;;;8.48;;
79076;SDS011;68477;42.698;23.342;2023-06-22T00:15:51;10.63;;;7.85;;
79076;SDS011;68477;42.698;23.342;2023-06-22T00:18:16;13.35;;;8.60;;
79076;SDS011;68477;42.698;23.342;2023-06-22T00:20:42;15.98;;;8.35;;
79076;SDS011;68477;42.698;23.342;2023-06-22T00:23:07;11.95;;;7.82;;
79076;SDS011;68477;42.698;23.342;2023-06-22T00:25:40;12.68;;;7.95;;
79076;SDS011;68477;42.698;23.342;2023-06-22T00:28:05;12.23;;;8.88;;
79076;SDS011;68477;42.698;23.342;2023-06-22T00:30:32;15.90;;;9.00;;
79076;SDS011;68477;42.698;23.342;2023-06-22T00:32:59;12.13;;;8.98;;
79076;SDS011;68477;42.698;23.342;2023-06-22T00:35:24;12.95;;;9.10;;
79076;SDS011;68477;42.698;23.342;2023-06-22T00:37:57;13.40;;;8.85;;
79076;SDS011;68477;42.698;23.342;2023-06-22T00:40:25;10.93;;;8.27;;
79076;SDS011;68477;42.698;23.342;2023-06-22T00:42:52;13.68;;;8.93;;
79076;SDS011;68477;42.698;23.342;2023-06-22T00:45:18;12.50;;;8.93;;
79076;SDS011;68477;42.698;23.342;2023-06-22T00:47:45;10.73;;;8.05;;
79076;SDS011;68477;42.698;23.342;2023-06-22T00:50:10;14.05;;;9.88;;
79076;SDS011;68477;42.698;23.342;2023-06-22T00:52:43;13.45;;;10.32;;
79076;SDS011;68477;42.698;23.342;2023-06-22T00:57:37;14.50;;;9.10;;
79076;SDS011;68477;42.698;23.342;2023-06-22T01:00:02;14.38;;;9.60;;
79076;SDS011;68477;42.698;23.342;2023-06-22T01:02:31;11.40;;;8.75;;
79076;SDS011;68477;42.698;23.342;2023-06-22T01:04:57;13.20;;;9.60;;
79076;SDS011;68477;42.698;23.342;2023-06-22T01:07:33;13.18;;;9.10;;
79076;SDS011;68477;42.698;23.342;2023-06-22T01:12:40;15.77;;;9.63;;
79076;SDS011;68477;42.698;23.342;2023-06-22T01:15:30;14.07;;;10.00;;
79076;SDS011;68477;42.698;23.342;2023-06-22T01:18:02;16.00;;;9.35;;
79076;SDS011;68477;42.698;23.342;2023-06-22T01:20:30;11.88;;;9.07;;
79076;SDS011;68477;42.698;23.342;2023-06-22T01:25:40;12.13;;;9.07;;
79076;SDS011;68477;42.698;23.342;2023-06-22T01:31:09;12.55;;;8.98;;
79076;SDS011;68477;42.698;23.342;2023-06-22T01:33:37;13.27;;;8.95;;
79076;SDS011;68477;42.698;23.342;2023-06-22T01:36:07;13.23;;;9.05;;
79076;SDS011;68477;42.698;23.342;2023-06-22T01:38:33;14.38;;;8.52;;
79076;SDS011;68477;42.698;23.342;2023-06-22T01:41:00;10.02;;;7.85;;
79076;SDS011;68477;42.698;23.342;2023-06-22T01:43:27;13.65;;;8.43;;
79076;SDS011;68477;42.698;23.342;2023-06-22T01:45:54;11.93;;;8.23;;
79076;SDS011;68477;42.698;23.342;2023-06-22T01:48:21;13.02;;;8.65;;
79076;SDS011;68477;42.698;23.342;2023-06-22T01:50:47;11.82;;;8.35;;
79076;SDS011;68477;42.698;23.342;2023-06-22T01:53:13;11.95;;;8.88;;
79076;SDS011;68477;42.698;23.342;2023-06-22T01:55:39;12.65;;;9.02;;
79076;SDS011;68477;42.698;23.342;2023-06-22T01:58:04;15.48;;;8.00;;
79076;SDS011;68477;42.698;23.342;2023-06-22T02:00:34;11.90;;;8.50;;
79076;SDS011;68477;42.698;23.342;2023-06-22T02:03:05;12.63;;;8.57;;
79076;SDS011;68477;42.698;23.342;2023-06-22T02:06:01;12.27;;;8.35;;
79076;SDS011;68477;42.698;23.342;2023-06-22T02:08:33;12.05;;;8.48;;
79076;SDS011;68477;42.698;23.342;2023-06-22T02:11:03;11.40;;;7.75;;
79076;SDS011;68477;42.698;23.342;2023-06-22T02:13:30;11.05;;;7.72;;
79076;SDS011;68477;42.698;23.342;2023-06-22T02:15:57;13.80;;;8.40;;
79076;SDS011;68477;42.698;23.342;2023-06-22T02:18:23;13.82;;;8.32;;
79076;SDS011;68477;42.698;23.342;2023-06-22T02:20:48;12.70;;;8.57;;
79076;SDS011;68477;42.698;23.342;2023-06-22T02:23:14;13.25;;;8.38;;
79076;SDS011;68477;42.698;23.342;2023-06-22T02:25:39;12.27;;;8.30;;
79076;SDS011;68477;42.698;23.342;2023-06-22T02:28:05;12.68;;;8.57;;
79076;SDS011;68477;42.698;23.342;2023-06-22T02:30:30;12.90;;;8.05;;
79076;SDS011;68477;42.698;23.342;2023-06-22T02:32:56;13.95;;;7.78;;
79076;SDS011;68477;42.698;23.342;2023-06-22T02:35:25;13.27;;;8.90;;
79076;SDS011;68477;42.698;23.342;2023-06-22T02:37:51;12.80;;;8.73;;
79076;SDS011;68477;42.698;23.342;2023-06-22T02:40:17;13.20;;;8.88;;
79076;SDS011;68477;42.698;23.342;2023-06-22T02:42:42;12.45;;;8.55;;
79076;SDS011;68477;42.698;23.342;2023-06-22T02:45:08;13.00;;;9.55;;
79076;SDS011;68477;42.698;23.342;2023-06-22T02:47:34;11.18;;;8.23;;
79076;SDS011;68477;42.698;23.342;2023-06-22T02:49:59;14.43;;;8.63;;
79076;SDS011;68477;42.698;23.342;2023-06-22T02:52:26;14.40;;;7.93;;
79076;SDS011;68477;42.698;23.342;2023-06-22T02:54:51;11.18;;;8.45;;
79076;SDS011;68477;42.698;23.342;2023-06-22T02:57:17;18.58;;;11.25;;
79076;SDS011;68477;42.698;23.342;2023-06-22T02:59:43;13.43;;;8.63;;
79076;SDS011;68477;42.698;23.342;2023-06-22T03:02:08;12.00;;;8.82;;
79076;SDS011;68477;42.698;23.342;2023-06-22T03:04:35;13.25;;;8.73;;
79076;SDS011;68477;42.698;23.342;2023-06-22T03:07:01;14.63;;;9.27;;
79076;SDS011;68477;42.698;23.342;2023-06-22T03:09:27;14.63;;;9.02;;
79076;SDS011;68477;42.698;23.342;2023-06-22T03:11:53;14.90;;;8.95;;
79076;SDS011;68477;42.698;23.342;2023-06-22T03:14:19;12.18;;;8.80;;
79076;SDS011;68477;42.698;23.342;2023-06-22T03:16:45;11.18;;;7.82;;
79076;SDS011;68477;42.698;23.342;2023-06-22T03:19:10;13.27;;;8.98;;
79076;SDS011;68477;42.698;23.342;2023-06-22T03:21:36;14.68;;;9.88;;
79076;SDS011;68477;42.698;23.342;2023-06-22T03:24:03;19.48;;;9.90;;
79076;SDS011;68477;42.698;23.342;2023-06-22T03:26:29;14.63;;;9.05;;
79076;SDS011;68477;42.698;23.342;2023-06-22T03:28:55;12.63;;;9.15;;
79076;SDS011;68477;42.698;23.342;2023-06-22T03:31:21;20.42;;;9.52;;
79076;SDS011;68477;42.698;23.342;2023-06-22T03:33:47;16.23;;;9.80;;
79076;SDS011;68477;42.698;23.342;2023-06-22T03:36:14;15.68;;;9.20;;
79076;SDS011;68477;42.698;23.342;2023-06-22T03:38:44;14.20;;;9.40;;
79076;SDS011;68477;42.698;23.342;2023-06-22T03:41:12;12.35;;;8.38;;
79076;SDS011;68477;42.698;23.342;2023-06-22T03:43:38;13.18;;;9.40;;
79076;SDS011;68477;42.698;23.342;2023-06-22T03:46:04;17.90;;;10.25;;
79076;SDS011;68477;42.698;23.342;2023-06-22T03:48:29;15.45;;;9.77;;
79076;SDS011;68477;42.698;23.342;2023-06-22T03:50:55;18.40;;;10.60;;
79076;SDS011;68477;42.698;23.342;2023-06-22T03:53:20;20.27;;;10.02;;
79076;SDS011;68477;42.698;23.342;2023-06-22T03:55:49;16.48;;;9.20;;
79076;SDS011;68477;42.698;23.342;2023-06-22T03:58:17;14.30;;;9.38;;
79076;SDS011;68477;42.698;23.342;2023-06-22T04:00:45;14.60;;;9.55;;
79076;SDS011;68477;42.698;23.342;2023-06-22T04:03:15;15.63;;;10.00;;
79076;SDS011;68477;42.698;23.342;2023-06-22T04:05:41;12.93;;;9.27;;
79076;SDS011;68477;42.698;23.342;2023-06-22T04:08:06;14.15;;;9.18;;
79076;SDS011;68477;42.698;23.342;2023-06-22T04:10:32;16.67;;;8.32;;
79076;SDS011;68477;42.698;23.342;2023-06-22T04:12:58;11.93;;;8.50;;
79076;SDS011;68477;42.698;23.342;2023-06-22T04:15:23;13.77;;;8.55;;
79076;SDS011;68477;42.698;23.342;2023-06-22T04:17:49;11.82;;;8.15;;
79076;SDS011;68477;42.698;23.342;2023-06-22T04:20:14;15.95;;;8.77;;
79076;SDS011;68477;42.698;23.342;2023-06-22T04:22:40;12.15;;;8.15;;
79076;SDS011;68477;42.698;23.342;2023-06-22T04:25:05;14.23;;;9.38;;
79076;SDS011;68477;42.698;23.342;2023-06-22T04:27:32;13.27;;;8.77;;
79076;SDS011;68477;42.698;23.342;2023-06-22T04:30:02;14.63;;;8.70;;
79076;SDS011;68477;42.698;23.342;2023-06-22T04:32:28;12.40;;;9.25;;
79076;SDS011;68477;42.698;23.342;2023-06-22T04:34:54;11.13;;;8.50;;
79076;SDS011;68477;42.698;23.342;2023-06-22T04:37:20;13.60;;;9.40;;
79076;SDS011;68477;42.698;23.342;2023-06-22T04:39:48;18.70;;;10.50;;
79076;SDS011;68477;42.698;23.342;2023-06-22T04:42:14;15.43;;;9.30;;
79076;SDS011;68477;42.698;23.342;2023-06-22T04:44:39;14.77;;;9.00;;
79076;SDS011;68477;42.698;23.342;2023-06-22T04:47:06;14.95;;;10.32;;
79076;SDS011;68477;42.698;23.342;2023-06-22T04:49:33;13.20;;;10.15;;
79076;SDS011;68477;42.698;23.342;2023-06-22T04:52:03;14.23;;;9.70;;
79076;SDS011;68477;42.698;23.342;2023-06-22T04:54:33;15.75;;;10.60;;
79076;SDS011;68477;42.698;23.342;2023-06-22T04:57:00;13.15;;;9.52;;
79076;SDS011;68477;42.698;23.342;2023-06-22T04:59:27;12.75;;;9.20;;
79076;SDS011;68477;42.698;23.342;2023-06-22T05:01:58;16.40;;;9.68;;
79076;SDS011;68477;42.698;23.342;2023-06-22T05:04:29;14.95;;;10.65;;
79076;SDS011;68477;42.698;23.342;2023-06-22T05:06:58;15.15;;;9.15;;
79076;SDS011;68477;42.698;23.342;2023-06-22T05:09:25;15.40;;;8.68;;
79076;SDS011;68477;42.698;23.342;2023-06-22T05:11:51;18.10;;;9.85;;
79076;SDS011;68477;42.698;23.342;2023-06-22T05:14:17;17.83;;;10.82;;
79076;SDS011;68477;42.698;23.342;2023-06-22T05:16:43;16.17;;;10.40;;
79076;SDS011;68477;42.698;23.342;2023-06-22T05:19:09;17.83;;;10.10;;
79076;SDS011;68477;42.698;23.342;2023-06-22T05:21:35;14.15;;;9.85;;
79076;SDS011;68477;42.698;23.342;2023-06-22T05:24:01;16.17;;;10.20;;
79076;SDS011;68477;42.698;23.342;2023-06-22T05:26:28;17.77;;;11.48;;
79076;SDS011;68477;42.698;23.342;2023-06-22T05:28:54;13.25;;;10.05;;
79076;SDS011;68477;42.698;23.342;2023-06-22T05:31:19;15.55;;;10.32;;
79076;SDS011;68477;42.698;23.342;2023-06-22T05:33:46;16.98;;;10.60;;
79076;SDS011;68477;42.698;23.342;2023-06-22T05:36:12;17.67;;;10.23;;
79076;SDS011;68477;42.698;23.342;2023-06-22T05:38:38;16.98;;;10.45;;
79076;SDS011;68477;42.698;23.342;2023-06-22T05:41:04;22.50;;;9.55;;
79076;SDS011;68477;42.698;23.342;2023-06-22T05:43:30;17.98;;;10.90;;
79076;SDS011;68477;42.698;23.342;2023-06-22T05:45:56;15.52;;;9.85;;
79076;SDS011;68477;42.698;23.342;2023-06-22T05:48:22;16.38;;;9.60;;
79076;SDS011;68477;42.698;23.342;2023-06-22T05:50:47;18.60;;;9.95;;
79076;SDS011;68477;42.698;23.342;2023-06-22T05:53:12;17.95;;;9.18;;
79076;SDS011;68477;42.698;23.342;2023-06-22T05:55:38;11.98;;;8.68;;
79076;SDS011;68477;42.698;23.342;2023-06-22T05:58:03;15.00;;;8.75;;
79076;SDS011;68477;42.698;23.342;2023-06-22T06:00:29;17.00;;;8.50;;
79076;SDS011;68477;42.698;23.342;2023-06-22T06:02:55;13.18;;;8.43;;
79076;SDS011;68477;42.698;23.342;2023-06-22T06:05:21;11.70;;;9.15;;
79076;SDS011;68477;42.698;23.342;2023-06-22T06:07:48;15.48;;;9.05;;
79076;SDS011;68477;42.698;23.342;2023-06-22T06:10:14;10.98;;;9.00;;
79076;SDS011;68477;42.698;23.342;2023-06-22T06:12:39;18.85;;;9.50;;
79076;SDS011;68477;42.698;23.342;2023-06-22T06:15:05;12.98;;;8.98;;
79076;SDS011;68477;42.698;23.342;2023-06-22T06:17:31;13.48;;;8.90;;
79076;SDS011;68477;42.698;23.342;2023-06-22T06:19:56;17.13;;;9.32;;
79076;SDS011;68477;42.698;23.342;2023-06-22T06:22:23;13.50;;;9.27;;
79076;SDS011;68477;42.698;23.342;2023-06-22T06:24:49;16.25;;;9.00;;
79076;SDS011;68477;42.698;23.342;2023-06-22T06:27:15;13.85;;;8.95;;
79076;SDS011;68477;42.698;23.342;2023-06-22T06:29:42;14.25;;;9.30;;
79076;SDS011;68477;42.698;23.342;2023-06-22T06:32:10;16.83;;;9.32;;
79076;SDS011;68477;42.698;23.342;2023-06-22T06:34:36;16.13;;;9.95;;
79076;SDS011;68477;42.698;23.342;2023-06-22T06:37:01;16.38;;;10.57;;
79076;SDS011;68477;42.698;23.342;2023-06-22T06:39:27;15.85;;;9.60;;
79076;SDS011;68477;42.698;23.342;2023-06-22T06:41:52;15.77;;;10.38;;
79076;SDS011;68477;42.698;23.342;2023-06-22T06:44:18;16.33;;;9.13;;
79076;SDS011;68477;42.698;23.342;2023-06-22T06:46:43;16.02;;;10.30;;
79076;SDS011;68477;42.698;23.342;2023-06-22T06:49:08;14.88;;;9.98;;
79076;SDS011;68477;42.698;23.342;2023-06-22T06:51:34;15.07;;;10.45;;
79076;SDS011;68477;42.698;23.342;2023-06-22T06:53:59;13.43;;;8.98;;
79076;SDS011;68477;42.698;23.342;2023-06-22T06:56:25;15.35;;;10.10;;
79076;SDS011;68477;42.698;23.342;2023-06-22T06:58:50;17.02;;;10.15;;
79076;SDS011;68477;42.698;23.342;2023-06-22T07:01:16;16.92;;;9.38;;
79076;SDS011;68477;42.698;23.342;2023-06-22T07:03:42;14.15;;;9.48;;
79076;SDS011;68477;42.698;23.342;2023-06-22T07:06:08;21.27;;;10.50;;
79076;SDS011;68477;42.698;23.342;2023-06-22T07:08:34;15.35;;;9.55;;
79076;SDS011;68477;42.698;23.342;2023-06-22T07:11:01;14.23;;;9.73;;
79076;SDS011;68477;42.698;23.342;2023-06-22T07:13:26;14.50;;;9.27;;
79076;SDS011;68477;42.698;23.342;2023-06-22T07:15:52;15.63;;;9.23;;
79076;SDS011;68477;42.698;23.342;2023-06-22T07:18:17;15.15;;;9.63;;
79076;SDS011;68477;42.698;23.342;2023-06-22T07:20:43;13.13;;;9.60;;
79076;SDS011;68477;42.698;23.342;2023-06-22T07:23:08;17.05;;;8.93;;
79076;SDS011;68477;42.698;23.342;2023-06-22T07:25:34;17.88;;;9.65;;
79076;SDS011;68477;42.698;23.342;2023-06-22T07:28:00;14.13;;;9.57;;
79076;SDS011;68477;42.698;23.342;2023-06-22T07:30:31;17.48;;;9.63;;
79076;SDS011;68477;42.698;23.342;2023-06-22T07:32:58;18.08;;;10.52;;
79076;SDS011;68477;42.698;23.342;2023-06-22T07:35:28;34.83;;;17.70;;
79076;SDS011;68477;42.698;23.342;2023-06-22T07:37:54;13.00;;;9.48;;
79076;SDS011;68477;42.698;23.342;2023-06-22T07:40:20;12.13;;;9.25;;
79076;SDS011;68477;42.698;23.342;2023-06-22T07:42:47;14.52;;;10.65;;
79076;SDS011;68477;42.698;23.342;2023-06-22T07:45:16;16.02;;;10.52;;
79076;SDS011;68477;42.698;23.342;2023-06-22T07:47:42;17.10;;;10.07;;
79076;SDS011;68477;42.698;23.342;2023-06-22T07:50:08;33.25;;;18.88;;
79076;SDS011;68477;42.698;23.342;2023-06-22T07:52:34;44.88;;;21.13;;
79076;SDS011;68477;42.698;23.342;2023-06-22T07:55:00;20.23;;;10.52;;
79076;SDS011;68477;42.698;23.342;2023-06-22T07:57:25;19.80;;;11.50;;
79076;SDS011;68477;42.698;23.342;2023-06-22T08:00:01;15.63;;;10.82;;
79076;SDS011;68477;42.698;23.342;2023-06-22T08:02:38;20.85;;;11.73;;
79076;SDS011;68477;42.698;23.342;2023-06-22T08:05:04;18.48;;;11.63;;
79076;SDS011;68477;42.698;23.342;2023-06-22T08:07:31;21.23;;;11.57;;
79076;SDS011;68477;42.698;23.342;2023-06-22T08:09:58;23.10;;;11.35;;
79076;SDS011;68477;42.698;23.342;2023-06-22T08:12:23;22.98;;;12.75;;
79076;SDS011;68477;42.698;23.342;2023-06-22T08:14:49;20.00;;;11.60;;
79076;SDS011;68477;42.698;23.342;2023-06-22T08:17:15;22.10;;;11.52;;
79076;SDS011;68477;42.698;23.342;2023-06-22T08:19:41;22.15;;;10.85;;
79076;SDS011;68477;42.698;23.342;2023-06-22T08:22:06;22.80;;;10.25;;
79076;SDS011;68477;42.698;23.342;2023-06-22T08:24:32;18.58;;;10.13;;
79076;SDS011;68477;42.698;23.342;2023-06-22T08:26:57;20.45;;;9.43;;
79076;SDS011;68477;42.698;23.342;2023-06-22T08:29:23;17.50;;;8.18;;
79076;SDS011;68477;42.698;23.342;2023-06-22T08:31:48;14.10;;;9.35;;
79076;SDS011;68477;42.698;23.342;2023-06-22T08:34:13;16.23;;;10.13;;
79076;SDS011;68477;42.698;23.342;2023-06-22T08:36:39;18.88;;;9.18;;
79076;SDS011;68477;42.698;23.342;2023-06-22T08:39:08;23.63;;;9.52;;
79076;SDS011;68477;42.698;23.342;2023-06-22T08:41:33;13.02;;;9.65;;
79076;SDS011;68477;42.698;23.342;2023-06-22T08:43:59;18.35;;;10.60;;
79076;SDS011;68477;42.698;23.342;2023-06-22T08:46:24;16.73;;;12.00;;
79076;SDS011;68477;42.698;23.342;2023-06-22T08:48:55;16.95;;;9.18;;
79076;SDS011;68477;42.698;23.342;2023-06-22T08:51:24;13.18;;;10.05;;
79076;SDS011;68477;42.698;23.342;2023-06-22T08:53:49;14.23;;;8.82;;
79076;SDS011;68477;42.698;23.342;2023-06-22T08:56:17;17.27;;;10.02;;
79076;SDS011;68477;42.698;23.342;2023-06-22T08:58:43;16.40;;;10.45;;
79076;SDS011;68477;42.698;23.342;2023-06-22T09:01:08;14.52;;;9.27;;
79076;SDS011;68477;42.698;23.342;2023-06-22T09:03:33;12.40;;;9.98;;
79076;SDS011;68477;42.698;23.342;2023-06-22T09:06:01;14.52;;;9.15;;
79076;SDS011;68477;42.698;23.342;2023-06-22T09:08:27;15.55;;;9.27;;
79076;SDS011;68477;42.698;23.342;2023-06-22T09:10:52;13.45;;;8.48;;
79076;SDS011;68477;42.698;23.342;2023-06-22T09:13:18;13.90;;;9.13;;
79076;SDS011;68477;42.698;23.342;2023-06-22T09:15:43;15.88;;;9.38;;
79076;SDS011;68477;42.698;23.342;2023-06-22T09:18:12;10.43;;;8.30;;
79076;SDS011;68477;42.698;23.342;2023-06-22T09:20:38;15.30;;;8.30;;
79076;SDS011;68477;42.698;23.342;2023-06-22T09:23:04;14.98;;;9.18;;
79076;SDS011;68477;42.698;23.342;2023-06-22T09:25:30;13.48;;;9.50;;
79076;SDS011;68477;42.698;23.342;2023-06-22T09:27:56;11.85;;;9.07;;
79076;SDS011;68477;42.698;23.342;2023-06-22T09:30:21;12.25;;;8.95;;
79076;SDS011;68477;42.698;23.342;2023-06-22T09:32:47;11.63;;;8.73;;
79076;SDS011;68477;42.698;23.342;2023-06-22T09:35:13;11.32;;;8.90;;
79076;SDS011;68477;42.698;23.342;2023-06-22T09:37:39;14.73;;;8.55;;
79076;SDS011;68477;42.698;23.342;2023-06-22T09:40:06;13.45;;;8.85;;
79076;SDS011;68477;42.698;23.342;2023-06-22T09:42:37;11.57;;;8.52;;
79076;SDS011;68477;42.698;23.342;2023-06-22T09:45:03;11.88;;;8.23;;
79076;SDS011;68477;42.698;23.342;2023-06-22T09:47:29;13.98;;;8.90;;
79076;SDS011;68477;42.698;23.342;2023-06-22T09:49:54;11.32;;;7.22;;
79076;SDS011;68477;42.698;23.342;2023-06-22T09:52:20;10.65;;;7.60;;
79076;SDS011;68477;42.698;23.342;2023-06-22T09:54:46;11.07;;;7.80;;
79076;SDS011;68477;42.698;23.342;2023-06-22T09:57:12;12.55;;;8.43;;
79076;SDS011;68477;42.698;23.342;2023-06-22T09:59:38;10.13;;;7.47;;
79076;SDS011;68477;42.698;23.342;2023-06-22T10:02:06;13.60;;;8.35;;
79076;SDS011;68477;42.698;23.342;2023-06-22T10:04:33;10.85;;;7.43;;
79076;SDS011;68477;42.698;23.342;2023-06-22T10:06:59;14.75;;;8.95;;
79076;SDS011;68477;42.698;23.342;2023-06-22T10:09:25;12.25;;;7.95;;
79076;SDS011;68477;42.698;23.342;2023-06-22T10:11:50;9.65;;;7.50;;
79076;SDS011;68477;42.698;23.342;2023-06-22T10:14:16;11.55;;;8.10;;
79076;SDS011;68477;42.698;23.342;2023-06-22T10:16:42;12.30;;;8.10;;
79076;SDS011;68477;42.698;23.342;2023-06-22T10:19:07;11.68;;;8.00;;
79076;SDS011;68477;42.698;23.342;2023-06-22T10:21:33;12.25;;;8.82;;
79076;SDS011;68477;42.698;23.342;2023-06-22T10:23:59;11.55;;;8.50;;
79076;SDS011;68477;42.698;23.342;2023-06-22T10:26:30;12.23;;;8.70;;
79076;SDS011;68477;42.698;23.342;2023-06-22T10:28:56;12.23;;;8.05;;
79076;SDS011;68477;42.698;23.342;2023-06-22T10:31:22;13.48;;;8.07;;
79076;SDS011;68477;42.698;23.342;2023-06-22T10:33:47;12.30;;;8.40;;
79076;SDS011;68477;42.698;23.342;2023-06-22T10:36:16;10.95;;;8.10;;
79076;SDS011;68477;42.698;23.342;2023-06-22T10:38:41;12.35;;;8.07;;
79076;SDS011;68477;42.698;23.342;2023-06-22T10:41:07;11.52;;;8.65;;
79076;SDS011;68477;42.698;23.342;2023-06-22T10:43:32;11.00;;;7.28;;
79076;SDS011;68477;42.698;23.342;2023-06-22T10:45:58;11.75;;;7.72;;
79076;SDS011;68477;42.698;23.342;2023-06-22T10:48:24;12.00;;;7.95;;
79076;SDS011;68477;42.698;23.342;2023-06-22T10:50:50;10.98;;;7.72;;
79076;SDS011;68477;42.698;23.342;2023-06-22T10:53:15;9.90;;;7.95;;
79076;SDS011;68477;42.698;23.342;2023-06-22T10:55:41;10.27;;;8.15;;
79076;SDS011;68477;42.698;23.342;2023-06-22T10:58:06;10.55;;;7.70;;
79076;SDS011;68477;42.698;23.342;2023-06-22T11:00:32;11.02;;;8.52;;
79076;SDS011;68477;42.698;23.342;2023-06-22T11:02:57;11.73;;;7.85;;
79076;SDS011;68477;42.698;23.342;2023-06-22T11:05:23;9.52;;;7.90;;
79076;SDS011;68477;42.698;23.342;2023-06-22T11:07:49;11.57;;;7.30;;
79076;SDS011;68477;42.698;23.342;2023-06-22T11:10:14;10.57;;;7.60;;
79076;SDS011;68477;42.698;23.342;2023-06-22T11:12:40;11.88;;;7.38;;
79076;SDS011;68477;42.698;23.342;2023-06-22T11:15:07;11.32;;;7.72;;
79076;SDS011;68477;42.698;23.342;2023-06-22T11:17:33;9.48;;;7.32;;
79076;SDS011;68477;42.698;23.342;2023-06-22T11:19:58;10.35;;;7.20;;
79076;SDS011;68477;42.698;23.342;2023-06-22T11:22:25;11.35;;;7.68;;
79076;SDS011;68477;42.698;23.342;2023-06-22T11:24:51;9.45;;;7.30;;
79076;SDS011;68477;42.698;23.342;2023-06-22T11:27:16;10.90;;;6.90;;
79076;SDS011;68477;42.698;23.342;2023-06-22T11:29:42;10.68;;;7.95;;
79076;SDS011;68477;42.698;23.342;2023-06-22T11:32:07;10.25;;;6.95;;
79076;SDS011;68477;42.698;23.342;2023-06-22T11:34:33;8.52;;;7.07;;
79076;SDS011;68477;42.698;23.342;2023-06-22T11:36:58;19.90;;;6.93;;
79076;SDS011;68477;42.698;23.342;2023-06-22T11:39:24;10.73;;;7.40;;
79076;SDS011;68477;42.698;23.342;2023-06-22T11:41:49;10.25;;;7.40;;
79076;SDS011;68477;42.698;23.342;2023-06-22T11:44:15;11.80;;;7.78;;
79076;SDS011;68477;42.698;23.342;2023-06-22T11:46:40;13.52;;;7.13;;
79076;SDS011;68477;42.698;23.342;2023-06-22T11:49:06;8.13;;;6.80;;
79076;SDS011;68477;42.698;23.342;2023-06-22T11:51:31;9.68;;;7.55;;
79076;SDS011;68477;42.698;23.342;2023-06-22T11:53:57;10.25;;;7.13;;
79076;SDS011;68477;42.698;23.342;2023-06-22T11:56:23;12.23;;;7.57;;
79076;SDS011;68477;42.698;23.342;2023-06-22T11:58:48;10.35;;;6.55;;
79076;SDS011;68477;42.698;23.342;2023-06-22T12:01:14;10.60;;;6.80;;
79076;SDS011;68477;42.698;23.342;2023-06-22T12:03:40;10.57;;;6.53;;
79076;SDS011;68477;42.698;23.342;2023-06-22T12:06:06;10.60;;;7.15;;
79076;SDS011;68477;42.698;23.342;2023-06-22T12:08:31;11.27;;;7.18;;
79076;SDS011;68477;42.698;23.342;2023-06-22T12:10:57;12.77;;;7.93;;
79076;SDS011;68477;42.698;23.342;2023-06-22T12:13:22;11.23;;;7.82;;
79076;SDS011;68477;42.698;23.342;2023-06-22T12:15:48;11.65;;;6.78;;
79076;SDS011;68477;42.698;23.342;2023-06-22T12:18:13;9.25;;;7.03;;
79076;SDS011;68477;42.698;23.342;2023-06-22T12:20:40;14.77;;;7.60;;
79076;SDS011;68477;42.698;23.342;2023-06-22T12:23:05;12.75;;;8.10;;
79076;SDS011;68477;42.698;23.342;2023-06-22T12:25:30;9.93;;;7.05;;
79076;SDS011;68477;42.698;23.342;2023-06-22T12:27:56;14.32;;;8.70;;
79076;SDS011;68477;42.698;23.342;2023-06-22T12:30:22;12.10;;;7.72;;
79076;SDS011;68477;42.698;23.342;2023-06-22T12:32:47;11.73;;;7.70;;
79076;SDS011;68477;42.698;23.342;2023-06-22T12:35:13;12.05;;;7.60;;
79076;SDS011;68477;42.698;23.342;2023-06-22T12:37:41;14.23;;;8.48;;
79076;SDS011;68477;42.698;23.342;2023-06-22T12:40:08;20.63;;;8.95;;
79076;SDS011;68477;42.698;23.342;2023-06-22T12:42:34;15.98;;;8.70;;
79076;SDS011;68477;42.698;23.342;2023-06-22T12:44:59;13.10;;;7.82;;
79076;SDS011;68477;42.698;23.342;2023-06-22T12:47:25;12.98;;;7.85;;
79076;SDS011;68477;42.698;23.342;2023-06-22T12:49:50;12.27;;;7.47;;
79076;SDS011;68477;42.698;23.342;2023-06-22T12:52:16;11.48;;;6.80;;
79076;SDS011;68477;42.698;23.342;2023-06-22T12:54:41;10.23;;;6.43;;
79076;SDS011;68477;42.698;23.342;2023-06-22T12:57:07;9.38;;;6.65;;
79076;SDS011;68477;42.698;23.342;2023-06-22T12:59:33;13.73;;;8.15;;
79076;SDS011;68477;42.698;23.342;2023-06-22T13:01:59;14.98;;;8.15;;
79076;SDS011;68477;42.698;23.342;2023-06-22T13:04:24;11.93;;;6.25;;
79076;SDS011;68477;42.698;23.342;2023-06-22T13:06:50;17.50;;;7.50;;
79076;SDS011;68477;42.698;23.342;2023-06-22T13:09:17;10.55;;;7.15;;
79076;SDS011;68477;42.698;23.342;2023-06-22T13:11:44;15.35;;;7.93;;
79076;SDS011;68477;42.698;23.342;2023-06-22T13:14:09;12.40;;;7.38;;
79076;SDS011;68477;42.698;23.342;2023-06-22T13:16:35;14.27;;;8.13;;
79076;SDS011;68477;42.698;23.342;2023-06-22T13:19:00;12.20;;;7.72;;
79076;SDS011;68477;42.698;23.342;2023-06-22T13:21:27;13.95;;;7.38;;
79076;SDS011;68477;42.698;23.342;2023-06-22T13:23:53;12.95;;;8.02;;
79076;SDS011;68477;42.698;23.342;2023-06-22T13:26:18;12.85;;;7.95;;
79076;SDS011;68477;42.698;23.342;2023-06-22T13:28:43;11.93;;;7.65;;
79076;SDS011;68477;42.698;23.342;2023-06-22T13:31:09;11.68;;;7.53;;
79076;SDS011;68477;42.698;23.342;2023-06-22T13:33:34;16.50;;;8.02;;
79076;SDS011;68477;42.698;23.342;2023-06-22T13:36:00;18.27;;;10.30;;
79076;SDS011;68477;42.698;23.342;2023-06-22T13:38:25;17.45;;;10.10;;
79076;SDS011;68477;42.698;23.342;2023-06-22T13:40:51;15.18;;;8.77;;
79076;SDS011;68477;42.698;23.342;2023-06-22T13:43:17;14.93;;;8.43;;
79076;SDS011;68477;42.698;23.342;2023-06-22T13:45:42;16.38;;;9.25;;
79076;SDS011;68477;42.698;23.342;2023-06-22T13:48:08;14.43;;;8.57;;
79076;SDS011;68477;42.698;23.342;2023-06-22T13:50:34;13.10;;;8.52;;
79076;SDS011;68477;42.698;23.342;2023-06-22T13:53:00;10.68;;;8.32;;
79076;SDS011;68477;42.698;23.342;2023-06-22T13:55:25;13.73;;;8.65;;
79076;SDS011;68477;42.698;23.342;2023-06-22T13:57:51;11.23;;;8.45;;
79076;SDS011;68477;42.698;23.342;2023-06-22T14:00:17;11.77;;;8.15;;
79076;SDS011;68477;42.698;23.342;2023-06-22T14:02:43;17.38;;;9.00;;
79076;SDS011;68477;42.698;23.342;2023-06-22T14:05:09;17.98;;;9.20;;
79076;SDS011;68477;42.698;23.342;2023-06-22T14:07:35;14.82;;;9.10;;
79076;SDS011;68477;42.698;23.342;2023-06-22T14:10:02;16.85;;;8.57;;
79076;SDS011;68477;42.698;23.342;2023-06-22T14:12:28;15.82;;;8.80;;
79076;SDS011;68477;42.698;23.342;2023-06-22T14:14:53;12.32;;;8.13;;
79076;SDS011;68477;42.698;23.342;2023-06-22T14:17:19;16.60;;;9.15;;
79076;SDS011;68477;42.698;23.342;2023-06-22T14:19:50;13.45;;;8.82;;
79076;SDS011;68477;42.698;23.342;2023-06-22T14:22:20;11.95;;;8.68;;
79076;SDS011;68477;42.698;23.342;2023-06-22T14:24:46;16.98;;;9.27;;
79076;SDS011;68477;42.698;23.342;2023-06-22T14:27:12;14.73;;;8.93;;